createdAt,value
2018-12-22T00:00:25.494Z,2.30
2018-12-22T00:02:53.730Z,2.10
2018-12-22T00:05:22.010Z,2.20
2018-12-22T00:07:50.632Z,2.20
2018-12-22T00:10:19.037Z,2.17
2018-12-22T00:12:47.456Z,2.60
2018-12-22T00:15:16.006Z,2.77
2018-12-22T00:17:44.317Z,2.27
2018-12-22T00:20:13.365Z,2.37
2018-12-22T00:22:41.878Z,2.60
2018-12-22T00:25:10.972Z,2.10
2018-12-22T00:27:39.370Z,2.70
2018-12-22T00:30:08.174Z,2.97
2018-12-22T00:32:36.624Z,3.00
2018-12-22T00:35:05.554Z,2.50
2018-12-22T00:37:33.833Z,2.97
2018-12-22T00:40:02.274Z,2.40
2018-12-22T00:42:31.062Z,3.50
2018-12-22T00:44:59.679Z,2.97
2018-12-22T00:47:28.759Z,2.73
2018-12-22T00:49:57.171Z,2.53
2018-12-22T00:52:25.505Z,2.90
2018-12-22T00:54:53.865Z,2.53
2018-12-22T00:57:22.162Z,2.50
2018-12-22T00:59:50.513Z,3.10
2018-12-22T01:02:18.975Z,2.83
2018-12-22T01:04:47.289Z,2.83
2018-12-22T01:07:15.811Z,2.83
2018-12-22T01:09:44.597Z,2.93
2018-12-22T01:12:12.926Z,2.53
2018-12-22T01:14:41.282Z,2.20
2018-12-22T01:17:09.546Z,2.40
2018-12-22T01:19:37.906Z,2.20
2018-12-22T01:22:06.202Z,2.20
2018-12-22T01:24:34.580Z,1.97
2018-12-22T01:27:02.944Z,2.50
2018-12-22T01:29:31.354Z,2.03
2018-12-22T01:31:59.847Z,1.87
2018-12-22T01:34:28.269Z,2.00
2018-12-22T01:36:57.145Z,2.10
2018-12-22T01:39:25.417Z,1.90
2018-12-22T01:41:53.990Z,2.07
2018-12-22T01:44:22.350Z,2.10
2018-12-22T01:46:50.650Z,2.43
2018-12-22T01:49:19.069Z,1.80
2018-12-22T01:51:47.717Z,1.93
2018-12-22T01:54:16.058Z,2.07
2018-12-22T01:56:44.493Z,1.83
2018-12-22T01:59:13.455Z,1.80
2018-12-22T02:01:41.748Z,1.80
2018-12-22T02:04:10.128Z,2.30
2018-12-22T02:06:38.666Z,2.10
2018-12-22T02:09:07.921Z,2.10
2018-12-22T02:11:36.179Z,2.27
2018-12-22T02:14:04.583Z,2.20
2018-12-22T02:16:32.826Z,1.90
2018-12-22T02:19:01.206Z,1.70
2018-12-22T02:21:29.725Z,1.63
2018-12-22T02:23:58.086Z,2.10
2018-12-22T02:26:26.374Z,1.87
2018-12-22T02:28:56.917Z,1.60
2018-12-22T02:31:24.990Z,1.67
2018-12-22T02:33:53.353Z,1.90
2018-12-22T02:36:21.679Z,1.60
2018-12-22T02:38:50.042Z,2.27
2018-12-22T02:41:18.491Z,1.77
2018-12-22T02:43:46.882Z,1.83
2018-12-22T02:46:15.197Z,1.90
2018-12-22T02:48:43.591Z,1.93
2018-12-22T02:51:11.927Z,1.73
2018-12-22T02:53:40.254Z,1.83
2018-12-22T02:56:08.649Z,2.00
2018-12-22T02:58:37.002Z,2.07
2018-12-22T03:01:05.358Z,2.07
2018-12-22T03:03:33.730Z,1.70
2018-12-22T03:06:02.007Z,2.03
2018-12-22T03:08:30.318Z,2.17
2018-12-22T03:10:58.546Z,1.87
2018-12-22T03:13:27.046Z,1.70
2018-12-22T03:15:55.845Z,1.97
2018-12-22T03:18:24.514Z,1.60
2018-12-22T03:20:52.789Z,1.50
2018-12-22T03:23:21.265Z,1.70
2018-12-22T03:25:49.738Z,1.70
2018-12-22T03:28:18.159Z,1.70
2018-12-22T03:30:46.502Z,1.70
2018-12-22T03:33:14.818Z,1.87
2018-12-22T03:35:43.152Z,1.77
2018-12-22T03:38:11.506Z,2.07
2018-12-22T03:40:40.245Z,1.60
2018-12-22T03:43:08.779Z,2.00
2018-12-22T03:45:37.157Z,1.80
2018-12-22T03:48:05.435Z,1.70
2018-12-22T03:50:33.695Z,1.53
2018-12-22T03:53:02.009Z,1.87
2018-12-22T03:55:30.420Z,1.90
2018-12-22T03:57:58.886Z,1.70
2018-12-22T04:00:27.436Z,1.67
2018-12-22T04:02:55.874Z,1.80
2018-12-22T04:05:24.148Z,1.70
2018-12-22T04:07:52.444Z,1.83
2018-12-22T04:10:20.787Z,1.60
2018-12-22T04:12:49.137Z,1.90
2018-12-22T04:15:17.673Z,1.77
2018-12-22T04:17:46.181Z,2.00
2018-12-22T04:20:14.544Z,1.70
2018-12-22T04:22:42.934Z,1.50
2018-12-22T04:25:11.877Z,1.70
2018-12-22T04:27:40.252Z,1.60
2018-12-22T04:30:08.614Z,1.70
2018-12-22T04:32:37.450Z,1.53
2018-12-22T04:35:06.171Z,1.60
2018-12-22T04:37:34.963Z,1.70
2018-12-22T04:40:03.678Z,1.50
2018-12-22T04:42:32.040Z,1.67
2018-12-22T04:45:00.385Z,1.60
2018-12-22T04:47:28.763Z,1.47
2018-12-22T04:49:57.070Z,1.43
2018-12-22T04:52:25.843Z,1.70
2018-12-22T04:54:54.285Z,1.80
2018-12-22T04:57:22.821Z,1.53
2018-12-22T04:59:51.238Z,1.80
2018-12-22T05:02:19.626Z,1.40
2018-12-22T05:04:47.913Z,1.60
2018-12-22T05:07:16.477Z,1.37
2018-12-22T05:09:44.813Z,1.90
2018-12-22T05:12:13.209Z,1.60
2018-12-22T05:14:41.537Z,1.50
2018-12-22T05:17:09.843Z,1.67
2018-12-22T05:19:38.313Z,2.10
2018-12-22T05:22:06.666Z,2.10
2018-12-22T05:24:35.123Z,2.43
2018-12-22T05:27:03.469Z,2.00
2018-12-22T05:29:31.795Z,2.20
2018-12-22T05:32:00.138Z,1.80
2018-12-22T05:34:28.498Z,1.80
2018-12-22T05:36:56.903Z,1.60
2018-12-22T05:39:25.247Z,2.10
2018-12-22T05:41:53.804Z,1.87
2018-12-22T05:44:22.679Z,2.10
2018-12-22T05:46:50.986Z,2.40
2018-12-22T05:49:19.281Z,2.27
2018-12-22T05:51:47.600Z,2.50
2018-12-22T05:54:16.288Z,2.20
2018-12-22T05:56:44.704Z,2.20
2018-12-22T05:59:13.200Z,2.40
2018-12-22T06:01:41.582Z,2.30
2018-12-22T06:04:09.921Z,2.07
2018-12-22T06:06:38.341Z,1.73
2018-12-22T06:09:06.749Z,1.77
2018-12-22T06:11:35.142Z,2.17
2018-12-22T06:14:03.411Z,2.00
2018-12-22T06:16:31.728Z,1.97
2018-12-22T06:19:00.555Z,2.00
2018-12-22T06:21:29.344Z,2.10
2018-12-22T06:23:57.921Z,2.30
2018-12-22T06:26:26.184Z,2.23
2018-12-22T06:28:54.448Z,2.10
2018-12-22T06:31:22.873Z,1.93
2018-12-22T06:33:51.217Z,2.03
2018-12-22T06:36:19.645Z,2.30
2018-12-22T06:38:47.958Z,2.27
2018-12-22T06:41:16.322Z,2.00
2018-12-22T06:43:44.587Z,2.03
2018-12-22T06:46:12.966Z,2.00
2018-12-22T06:48:41.346Z,2.20
2018-12-22T06:51:09.727Z,2.27
2018-12-22T06:53:38.087Z,2.53
2018-12-22T06:56:06.388Z,2.13
2018-12-22T06:58:34.750Z,2.20
2018-12-22T07:01:03.110Z,2.40
2018-12-22T07:03:31.520Z,2.77
2018-12-22T07:05:59.850Z,2.40
2018-12-22T07:08:28.174Z,2.40
2018-12-22T07:10:56.477Z,2.00
2018-12-22T07:13:24.806Z,2.50
2018-12-22T07:15:53.174Z,2.40
2018-12-22T07:18:21.597Z,2.20
2018-12-22T07:20:50.130Z,2.50
2018-12-22T07:23:18.502Z,2.43
2018-12-22T07:25:47.017Z,2.57
2018-12-22T07:28:15.474Z,2.60
2018-12-22T07:30:43.801Z,3.20
2018-12-22T07:33:12.113Z,4.17
2018-12-22T07:35:40.389Z,4.60
2018-12-22T07:38:08.702Z,4.30
2018-12-22T07:40:36.953Z,4.07
2018-12-22T07:43:06.188Z,4.20
2018-12-22T07:45:35.119Z,4.10
2018-12-22T07:48:04.322Z,4.00
2018-12-22T07:50:34.330Z,3.50
2018-12-22T07:53:02.825Z,3.60
2018-12-22T07:55:31.844Z,3.60
2018-12-22T07:58:00.137Z,3.70
2018-12-22T08:00:34.767Z,3.80
2018-12-22T08:02:59.509Z,3.30
2018-12-22T08:05:27.892Z,3.50
2018-12-22T08:07:56.181Z,3.33
2018-12-22T08:10:24.454Z,3.40
2018-12-22T08:12:52.876Z,3.70
2018-12-22T08:15:21.617Z,5.07
2018-12-22T08:17:50.189Z,5.30
2018-12-22T08:20:18.569Z,7.27
2018-12-22T08:22:46.949Z,8.77
2018-12-22T08:25:15.351Z,10.07
2018-12-22T08:27:43.682Z,9.97
2018-12-22T08:30:12.619Z,9.40
2018-12-22T08:32:41.186Z,10.43
2018-12-22T08:35:09.681Z,10.63
2018-12-22T08:37:38.054Z,11.20
2018-12-22T08:40:08.204Z,10.77
2018-12-22T08:42:36.763Z,12.93
2018-12-22T08:45:06.349Z,14.87
2018-12-22T08:47:34.734Z,15.40
2018-12-22T08:50:09.052Z,13.87
2018-12-22T08:52:33.619Z,13.70
2018-12-22T08:55:01.978Z,14.07
2018-12-22T08:57:30.345Z,12.37
2018-12-22T08:59:58.779Z,11.43
2018-12-22T09:02:27.085Z,11.57
2018-12-22T09:04:55.365Z,15.27
2018-12-22T09:07:23.716Z,22.17
2018-12-22T09:09:52.133Z,31.83
2018-12-22T09:12:20.404Z,30.27
2018-12-22T09:15:06.733Z,24.30
2018-12-22T09:17:35.214Z,17.83
2018-12-22T09:20:04.004Z,13.00
2018-12-22T09:22:32.602Z,9.17
2018-12-22T09:25:01.058Z,7.77
2018-12-22T09:27:29.468Z,8.93
2018-12-22T09:29:57.862Z,10.27
2018-12-22T09:32:26.318Z,10.77
2018-12-22T09:34:54.642Z,10.10
2018-12-22T09:37:23.089Z,10.60
2018-12-22T09:39:51.498Z,9.90
2018-12-22T09:42:19.841Z,9.00
2018-12-22T09:44:48.201Z,8.60
2018-12-22T09:47:16.587Z,7.57
2018-12-22T09:49:44.993Z,6.10
2018-12-22T09:52:13.426Z,6.30
2018-12-22T09:54:41.738Z,7.63
2018-12-22T09:57:10.178Z,7.53
2018-12-22T09:59:38.713Z,8.10
2018-12-22T10:02:06.974Z,8.67
2018-12-22T10:04:35.328Z,8.30
2018-12-22T10:07:03.822Z,9.27
2018-12-22T10:09:32.113Z,16.03
2018-12-22T10:12:00.556Z,21.83
2018-12-22T10:17:36.391Z,16.50
2018-12-22T10:20:05.434Z,12.27
2018-12-22T10:22:33.954Z,13.03
2018-12-22T10:25:02.285Z,15.37
2018-12-22T10:27:30.664Z,11.73
2018-12-22T10:29:59.177Z,10.13
2018-12-22T10:32:27.725Z,8.77
2018-12-22T10:34:56.039Z,8.50
2018-12-22T10:37:24.413Z,9.73
2018-12-22T10:39:52.794Z,11.77
2018-12-22T10:42:21.183Z,11.80
2018-12-22T10:44:49.760Z,12.67
2018-12-22T10:47:18.215Z,10.97
2018-12-22T10:49:46.523Z,9.27
2018-12-22T10:52:14.988Z,8.40
2018-12-22T10:54:43.365Z,8.60
2018-12-22T10:57:11.678Z,11.67
2018-12-22T10:59:40.023Z,10.17
2018-12-22T11:02:08.294Z,9.67
2018-12-22T11:04:36.765Z,8.83
2018-12-22T11:07:05.126Z,9.50
2018-12-22T11:09:33.602Z,9.07
2018-12-22T11:12:01.922Z,8.07
2018-12-22T11:14:56.955Z,7.93
2018-12-22T11:17:25.251Z,7.37
2018-12-22T11:19:53.654Z,6.90
2018-12-22T11:22:21.906Z,6.20
2018-12-22T11:24:50.342Z,6.20
2018-12-22T11:27:18.703Z,5.63
2018-12-22T11:29:47.142Z,5.37
2018-12-22T11:32:15.477Z,5.30
2018-12-22T11:34:43.886Z,7.10
2018-12-22T11:37:27.344Z,5.40
2018-12-22T11:39:55.671Z,6.80
2018-12-22T11:42:24.023Z,10.70
2018-12-22T11:44:52.290Z,9.17
2018-12-22T11:47:29.088Z,7.30
2018-12-22T11:49:57.514Z,6.33
2018-12-22T11:52:25.900Z,6.47
2018-12-22T11:54:56.437Z,6.77
2018-12-22T11:57:24.845Z,7.27
2018-12-22T11:59:53.414Z,8.43
2018-12-22T12:02:21.823Z,12.80
2018-12-22T12:04:50.213Z,17.77
2018-12-22T12:07:18.542Z,18.57
2018-12-22T12:09:46.873Z,20.57
2018-12-22T12:12:15.227Z,17.90
2018-12-22T12:15:05.183Z,15.37
2018-12-22T12:19:47.618Z,14.97
2018-12-22T12:22:15.914Z,11.73
2018-12-22T12:24:44.340Z,10.70
2018-12-22T12:27:12.777Z,11.37
2018-12-22T12:29:41.290Z,9.47
2018-12-22T12:32:09.630Z,9.60
2018-12-22T12:34:38.089Z,10.00
2018-12-22T12:37:06.429Z,10.77
2018-12-22T12:39:34.742Z,12.93
2018-12-22T12:42:03.186Z,12.87
2018-12-22T12:44:31.629Z,15.60
2018-12-22T12:47:00.093Z,19.60
2018-12-22T12:49:28.469Z,20.80
2018-12-22T12:51:56.823Z,20.00
2018-12-22T12:54:25.260Z,21.33
2018-12-22T12:56:55.855Z,19.30
2018-12-22T12:59:24.897Z,18.77
2018-12-22T13:02:00.730Z,18.20
2018-12-22T13:04:23.580Z,18.83
2018-12-22T13:06:51.955Z,17.63
2018-12-22T13:09:20.790Z,17.40
2018-12-22T13:11:50.591Z,18.73
2018-12-22T13:14:37.115Z,17.50
2018-12-22T13:17:05.594Z,18.43
2018-12-22T13:19:33.966Z,20.97
2018-12-22T13:22:02.482Z,20.10
2018-12-22T13:24:30.894Z,18.27
2018-12-22T13:26:59.286Z,17.17
2018-12-22T13:29:27.677Z,15.17
2018-12-22T13:31:56.142Z,17.50
2018-12-22T13:34:24.568Z,16.43
2018-12-22T13:36:52.826Z,15.63
2018-12-22T13:39:26.068Z,23.67
2018-12-22T13:41:54.468Z,30.67
2018-12-22T13:44:22.897Z,22.60
2018-12-22T13:46:51.197Z,18.13
2018-12-22T13:49:19.465Z,18.10
2018-12-22T13:51:48.011Z,17.47
2018-12-22T13:54:19.701Z,17.23
2018-12-22T13:56:48.242Z,18.57
2018-12-22T13:59:16.623Z,19.40
2018-12-22T14:01:51.501Z,18.13
2018-12-22T14:04:20.158Z,18.53
2018-12-22T14:06:48.739Z,22.50
2018-12-22T14:09:17.221Z,21.83
2018-12-22T14:11:45.681Z,23.03
2018-12-22T14:14:19.183Z,23.57
2018-12-22T14:16:59.978Z,23.37
2018-12-22T14:19:28.387Z,23.20
2018-12-22T14:21:56.599Z,22.17
2018-12-22T14:24:45.922Z,24.97
2018-12-22T14:27:14.221Z,24.97
2018-12-22T14:29:42.658Z,24.77
2018-12-22T14:32:11.149Z,24.27
2018-12-22T14:34:59.699Z,23.33
2018-12-22T14:37:28.125Z,24.17
2018-12-22T14:39:56.541Z,22.63
2018-12-22T14:42:24.917Z,21.60
2018-12-22T14:44:53.298Z,21.50
2018-12-22T14:47:21.695Z,20.47
2018-12-22T14:49:50.143Z,26.83
2018-12-22T14:52:18.625Z,35.20
2018-12-22T14:54:47.137Z,40.37
2018-12-22T14:57:15.881Z,42.43
2018-12-22T14:59:44.401Z,43.33
2018-12-22T15:02:12.775Z,48.63
2018-12-22T15:04:41.091Z,50.00
2018-12-22T15:07:09.443Z,49.90
2018-12-22T15:09:37.860Z,47.60
2018-12-22T15:12:06.235Z,44.13
2018-12-22T15:14:53.897Z,42.37
2018-12-22T15:17:22.234Z,37.30
2018-12-22T15:19:50.677Z,34.97
2018-12-22T15:22:19.049Z,39.87
2018-12-22T15:24:47.468Z,40.77
2018-12-22T15:27:15.861Z,39.10
2018-12-22T15:29:44.132Z,35.17
2018-12-22T15:32:12.555Z,32.70
2018-12-22T15:34:40.953Z,22.37
2018-12-22T15:37:09.549Z,21.37
2018-12-22T15:39:37.982Z,19.20
2018-12-22T15:42:06.374Z,17.73
2018-12-22T15:44:34.695Z,16.70
2018-12-22T15:47:03.183Z,16.07
2018-12-22T15:49:31.694Z,15.43
2018-12-22T15:52:00.135Z,16.60
2018-12-22T15:54:28.621Z,16.53
2018-12-22T15:56:57.083Z,18.17
2018-12-22T15:59:25.493Z,22.40
2018-12-22T16:01:53.845Z,17.80
2018-12-22T16:04:22.601Z,14.87
2018-12-22T16:06:50.938Z,15.97
2018-12-22T16:09:19.411Z,19.87
2018-12-22T16:11:47.716Z,20.43
2018-12-22T16:14:23.369Z,23.83
2018-12-22T16:16:51.850Z,25.00
2018-12-22T16:19:20.322Z,24.47
2018-12-22T16:21:48.747Z,23.97
2018-12-22T16:24:17.158Z,22.53
2018-12-22T16:26:45.886Z,21.27
2018-12-22T16:29:18.916Z,24.40
2018-12-22T16:31:47.303Z,25.17
2018-12-22T16:34:15.618Z,24.83
2018-12-22T16:36:43.946Z,23.43
2018-12-22T16:39:12.404Z,23.80
2018-12-22T16:41:40.819Z,26.93
2018-12-22T16:44:12.854Z,27.53
2018-12-22T16:46:41.275Z,28.23
2018-12-22T16:49:09.670Z,30.17
2018-12-22T16:51:38.256Z,29.53
2018-12-22T16:54:07.253Z,32.70
2018-12-22T16:56:35.748Z,31.17
2018-12-22T16:59:04.303Z,29.63
2018-12-22T17:01:53.569Z,29.70
2018-12-22T17:04:22.022Z,27.77
2018-12-22T17:06:50.397Z,27.07
2018-12-22T17:09:22.918Z,26.10
2018-12-22T17:11:55.862Z,26.23
2018-12-22T17:14:40.424Z,23.27
2018-12-22T17:17:14.536Z,20.10
2018-12-22T17:19:47.466Z,19.20
2018-12-22T17:22:25.288Z,23.07
2018-12-22T17:25:09.234Z,23.57
2018-12-22T17:27:42.720Z,25.23
2018-12-22T17:30:15.986Z,30.23
2018-12-22T17:32:44.461Z,32.27
2018-12-22T17:35:18.584Z,33.03
2018-12-22T17:37:51.204Z,31.43
2018-12-22T17:40:19.663Z,31.80
2018-12-22T17:42:48.157Z,32.67
2018-12-22T17:45:16.624Z,34.10
2018-12-22T17:47:44.915Z,38.27
2018-12-22T17:50:14.137Z,38.17
2018-12-22T17:52:42.514Z,38.13
2018-12-22T17:55:11.081Z,45.10
2018-12-22T17:57:39.780Z,44.93
2018-12-22T18:00:09.989Z,41.80
2018-12-22T18:02:38.562Z,37.40
2018-12-22T18:05:07.164Z,35.77
2018-12-22T18:07:41.963Z,36.53
2018-12-22T18:10:23.711Z,42.73
2018-12-22T18:12:52.146Z,41.27
2018-12-22T18:16:11.375Z,38.27
2018-12-22T18:18:39.851Z,41.33
2018-12-22T18:21:08.186Z,51.47
2018-12-22T18:23:36.377Z,52.40
2018-12-22T18:26:04.758Z,42.37
2018-12-22T18:28:33.190Z,38.40
2018-12-22T18:31:01.526Z,35.73
2018-12-22T18:33:35.918Z,37.57
2018-12-22T18:36:00.180Z,37.20
2018-12-22T18:38:28.949Z,44.57
2018-12-22T18:40:57.254Z,42.97
2018-12-22T18:43:25.662Z,40.73
2018-12-22T18:45:53.981Z,37.80
2018-12-22T18:48:22.262Z,34.83
2018-12-22T18:50:50.620Z,30.97
2018-12-22T18:53:19.362Z,29.57
2018-12-22T18:55:47.663Z,27.33
2018-12-22T18:58:16.401Z,25.93
2018-12-22T19:00:45.058Z,29.13
2018-12-22T19:03:13.369Z,25.97
2018-12-22T19:05:41.757Z,24.40
2018-12-22T19:08:13.783Z,20.87
2018-12-22T19:10:46.681Z,16.63
2018-12-22T19:13:15.331Z,15.77
2018-12-22T19:16:27.813Z,18.60
2018-12-22T19:18:58.041Z,35.73
2018-12-22T19:21:26.712Z,35.30
2018-12-22T19:23:55.322Z,30.27
2018-12-22T19:26:39.249Z,22.67
2018-12-22T19:29:07.798Z,38.87
2018-12-22T19:31:41.747Z,48.33
2018-12-22T19:37:07.894Z,39.77
2018-12-22T19:39:36.885Z,28.00
2018-12-22T19:42:05.535Z,21.97
2018-12-22T19:44:34.234Z,20.10
2018-12-22T19:47:03.067Z,19.53
2018-12-22T19:49:32.513Z,21.00
2018-12-22T19:52:01.805Z,21.40
2018-12-22T19:54:30.527Z,19.93
2018-12-22T19:56:59.248Z,17.63
2018-12-22T19:59:27.908Z,17.07
2018-12-22T20:01:56.775Z,16.57
2018-12-22T20:04:26.192Z,13.77
2018-12-22T20:06:55.283Z,13.70
2018-12-22T20:09:24.554Z,16.80
2018-12-22T20:11:54.342Z,16.67
2018-12-22T20:14:51.781Z,15.10
2018-12-22T20:17:20.867Z,16.30
2018-12-22T20:19:50.102Z,16.10
2018-12-22T20:22:19.280Z,16.77
2018-12-22T20:24:47.870Z,16.43
2018-12-22T20:27:16.513Z,17.37
2018-12-22T20:29:45.057Z,14.93
2018-12-22T20:32:14.729Z,13.67
2018-12-22T20:34:43.463Z,14.93
2018-12-22T20:37:12.623Z,21.47
2018-12-22T20:39:42.939Z,24.87
2018-12-22T20:42:11.659Z,24.50
2018-12-22T20:44:40.348Z,24.27
2018-12-22T20:47:09.161Z,22.13
2018-12-22T20:49:37.646Z,18.73
2018-12-22T20:52:06.189Z,16.10
2018-12-22T20:54:34.789Z,16.53
2018-12-22T20:57:03.605Z,19.13
2018-12-22T20:59:32.197Z,20.93
2018-12-22T21:02:00.566Z,20.93
2018-12-22T21:04:28.898Z,19.03
2018-12-22T21:06:57.309Z,19.60
2018-12-22T21:09:25.758Z,20.13
2018-12-22T21:11:54.158Z,19.90
2018-12-22T21:15:01.653Z,17.13
2018-12-22T21:21:00.520Z,12.47
2018-12-22T21:23:29.237Z,10.87
2018-12-22T21:26:39.452Z,9.63
2018-12-22T21:29:07.967Z,8.53
2018-12-22T21:31:36.358Z,8.23
2018-12-22T21:34:04.703Z,8.63
2018-12-22T21:36:33.003Z,8.23
2018-12-22T21:39:01.454Z,9.93
2018-12-22T21:41:29.841Z,9.70
2018-12-22T21:43:58.169Z,10.07
2018-12-22T21:46:26.544Z,7.80
2018-12-22T21:48:54.978Z,8.53
2018-12-22T21:51:24.778Z,6.60
2018-12-22T21:53:53.118Z,6.47
2018-12-22T21:56:21.394Z,6.70
2018-12-22T21:58:49.739Z,6.80
2018-12-22T22:01:18.087Z,6.27
2018-12-22T22:03:46.498Z,6.73
2018-12-22T22:06:14.817Z,6.33
2018-12-22T22:08:43.211Z,7.10
2018-12-22T22:11:11.516Z,10.33
2018-12-22T22:13:39.934Z,10.20
2018-12-22T22:16:48.495Z,8.70
2018-12-22T22:19:16.874Z,7.40
2018-12-22T22:21:45.434Z,14.23
2018-12-22T22:24:13.742Z,18.60
2018-12-22T22:26:42.114Z,17.90
2018-12-22T22:29:10.320Z,15.43
2018-12-22T22:31:38.753Z,14.40
2018-12-22T22:34:07.248Z,13.80
2018-12-22T22:36:35.689Z,11.60
2018-12-22T22:39:05.489Z,10.77
2018-12-22T22:41:33.850Z,12.70
2018-12-22T22:44:02.279Z,12.60
2018-12-22T22:46:30.581Z,11.80
2018-12-22T22:48:59.078Z,8.93
2018-12-22T22:51:27.537Z,7.83
2018-12-22T22:53:55.895Z,7.57
2018-12-22T22:56:24.173Z,8.00
2018-12-22T22:58:52.481Z,7.57
2018-12-22T23:01:20.820Z,6.47
2018-12-22T23:03:49.298Z,5.17
2018-12-22T23:06:17.753Z,4.80
2018-12-22T23:08:46.113Z,4.03
2018-12-22T23:11:14.464Z,4.10
2018-12-22T23:13:42.801Z,3.87
2018-12-22T23:16:11.446Z,4.00
2018-12-22T23:18:39.946Z,4.20
2018-12-22T23:21:08.617Z,5.80
2018-12-22T23:23:37.669Z,8.33
2018-12-22T23:26:06.073Z,7.17
2018-12-22T23:28:34.450Z,6.23
2018-12-22T23:31:02.805Z,5.80
2018-12-22T23:33:31.214Z,4.87
2018-12-22T23:35:59.634Z,5.20
2018-12-22T23:38:28.045Z,4.73
2018-12-22T23:40:56.440Z,5.03
2018-12-22T23:43:25.069Z,4.97
2018-12-22T23:45:53.446Z,5.37
2018-12-22T23:48:21.738Z,5.10
2018-12-22T23:50:50.084Z,4.40
2018-12-22T23:53:18.454Z,5.30
2018-12-22T23:55:46.802Z,6.10
2018-12-22T23:58:15.350Z,6.10
